Airfield :
LOGIN :

Register | Disclaimer

   EN    FR    IT 

 










Legend :    VFR   Marginal VFR   IFR   Intensive IFR   Very Intensive IFR
Visi :
Ceiling :
>= 8 km
>= 3000ft
5 to 8 km
1000 to 3000 ft
1500m to 5 km
500 to 1000 ft
800 to 1500m
200 to 500 ft
< 800m
< 200 ft
Symbols :   Thunderstorms  Fog  Heavy snow  Heavy precipitations  Wind > 20 kt
SIGMETs :     Misc.  Thunderstorms  Icing  Turbulence  Mountain Waves  Volcanic Ashes







- Airport Elevation : 1197 ft
- IATA code : SPM


ETAD - Spangdahlem Ab

CURRENT METAR :
  • 210356Z AUTO 25004KT 9999 BKN070 OVC085 17/14 A3009 RMK AO2 SLP165 T01680139 $

EXPIRED METARs :
  • 210341Z AUTO 24005KT 9999 BKN065 BKN080 17/14 A3008 RMK AO2 SLP160 $
  • 210256Z AUTO 25004KT 9999 OVC100 17/14 A3007 RMK AO2 SLP157 T01680143 52010 $
  • 210156Z AUTO 27004KT 9999 SCT110 17/14 A3006 RMK AO2 SLP155 T01710142 $

TAF AMD TAF ETAD
Valid from the 20 at 17:00 until the 21 at 18:00 UTC


201700Z 2017/2118 23012G20KT 9999 SCT060 QNH2992INS
BECMG 2018/2019 25009KT 9999 BKN040 QNH2994INS
BECMG 2023/2024 27004KT 8000 BR FEW007 SCT040 QNH3000INS
BECMG 2106/2107 26010G15KT 9999 NSW FEW040 QNH3010INS TX26/2114Z TN14/2104Z LAST NO AMDS AFT 2018 NEXT 2110
No reported NOTAMs for that airfield.
1 SIGMET reported for the Langen FIR (EDGG) :
 
Embedded thunderstorms
EDGG SIGMET T02 VALID 210300/210500 EDZF
EDGG LANGEN FIR EMBD TS OBS WI N4947 E01054 - N4924 E01059 - N4838 E00939 - N4748 E00933 - N4747 E00853 - N4756 E00853 - N4740 E00759 - N4837 E00820 - N4947 E01054 TOP FL380 NC FCST AT 0500Z WI N4952 E01211 - N4847 E01333 - N4731 E01020 - N4747 E00913 - N4952 E01211=



MET'MAP, your aeronautical weather chart ! - Copyright ORBIFLY December 2007 - Disclaimer

ORBIFLY MET'MAP TEAM :

Programming & Development : Alexandra Zaïnal
Concept & Development : Baudouin d'Aumeries
Co-Development & Prog : Marc-Olivier Méhu
Technical & hardware support : Manuel Goepfert

Contact : metmap@orbifly.com




SOURCES & CREDITS :

   NOAA